• Join FlightAware (Why Join?)
  • Login
  • US Flag 
08:29PM EDT


 

Airport Tracker/Info


-or-


 

Live Flight TrackerFlight Track Log ✈ VH-DMN ✈ 21-Jul-2013 ✈ YPKU / KNX - YBRM / BME

Flight Track Log - Related Links

Times and Time Zones

All times are in EDT time to prevent confusion due to time zone crossing. See the VH-DMN flight status page for this flight to view local times or setup timezone preferences in your user account.

Time Position Orientation Groundspeed Altitude Reporting Facility
EDT Latitude Longitude Course Direction KTS MPH feet Rate Location/Type
05:18AM -15.7755 128.7089 360° North 10,000  Level Aus ATC (Calculated)
05:18AM -15.7755 128.7089 252° West 10,000  Level Aus ATC (Calculated)
05:19AM -15.7959 128.6454 252° West 10,000  Level Aus ATC (Calculated)
05:21AM -15.8016 128.6277 252° West  Level FlightAware Approximate
05:22AM -15.8156 128.5839 252° West  Level FlightAware Approximate
05:22AM -15.8367 128.5185 252° West 10,000  Level Aus ATC (Calculated)
05:24AM -15.8636 128.4345 252° West  Level FlightAware Approximate
05:25AM -15.8776 128.3907 252° West  Level FlightAware Approximate
05:25AM -15.8976 128.3280 360° North 10,000  Level Aus ATC (Calculated)
05:26AM -15.8976 128.3280 252° West 10,000  Level Aus ATC (Calculated)
05:27AM -15.9167 128.2684 252° West  Level FlightAware Approximate
05:28AM -15.9139 128.2771 252° West  Level FlightAware Approximate
05:29AM -15.9289 128.2300 252° West  Level FlightAware Approximate
05:29AM -15.9382 128.2010 252° West 10,000  Level Aus ATC (Calculated)
05:30AM -15.9585 128.1374 252° West 10,000  Level Aus ATC (Calculated)
05:32AM -15.9834 128.0589 252° West  Level FlightAware Approximate
05:33AM -15.9984 128.0119 252° West  Level FlightAware Approximate
05:34AM -16.0134 127.9648 252° West  Level FlightAware Approximate
05:35AM -16.0283 127.9177 252° West  Level FlightAware Approximate
05:36AM -16.0432 127.8706 252° West  Level FlightAware Approximate
05:37AM -16.0582 127.8235 252° West  Level FlightAware Approximate
05:38AM -16.0731 127.7764 252° West  Level FlightAware Approximate
05:39AM -16.0880 127.7292 252° West  Level FlightAware Approximate
05:40AM -16.1029 127.6821 252° West  Level FlightAware Approximate
05:41AM -16.1178 127.6350 252° West  Level FlightAware Approximate
05:42AM -16.1327 127.5878 252° West  Level FlightAware Approximate
05:43AM -16.1476 127.5407 252° West  Level FlightAware Approximate
05:44AM -16.1624 127.4935 252° West  Level FlightAware Approximate
05:45AM -16.1773 127.4464 252° West  Level FlightAware Approximate
05:46AM -16.1921 127.3992 252° West  Level FlightAware Approximate
05:47AM -16.2069 127.3520 252° West  Level FlightAware Approximate
05:48AM -16.2217 127.3048 252° West  Level FlightAware Approximate
05:49AM -16.2365 127.2577 252° West  Level FlightAware Approximate
05:50AM -16.2513 127.2104 252° West  Level FlightAware Approximate
05:51AM -16.2661 127.1632 252° West  Level FlightAware Approximate
05:52AM -16.2809 127.1160 252° West  Level FlightAware Approximate
05:52AM -16.2800 127.1189 252° West 10,000  Level Aus ATC (Calculated)
05:54AM -16.3078 127.0299 252° West  Level FlightAware Approximate
05:55AM -16.3225 126.9827 252° West  Level FlightAware Approximate
05:56AM -16.3372 126.9355 252° West  Level FlightAware Approximate
05:57AM -16.3520 126.8882 252° West  Level FlightAware Approximate
05:58AM -16.3667 126.8410 252° West  Level FlightAware Approximate
05:59AM -16.3814 126.7937 252° West  Level FlightAware Approximate
06:00AM -16.3961 126.7464 252° West  Level FlightAware Approximate
06:00AM -16.3993 126.7361 360° North 10,000  Level Aus ATC (Calculated)
06:01AM -16.3993 126.7361 252° West 10,000  Level Aus ATC (Calculated)
06:03AM -16.4279 126.6439 252° West  Level FlightAware Approximate
06:04AM -16.4426 126.5966 252° West  Level FlightAware Approximate
06:05AM -16.4572 126.5493 252° West  Level FlightAware Approximate
06:06AM -16.4718 126.5020 252° West  Level FlightAware Approximate
06:07AM -16.4865 126.4547 252° West  Level FlightAware Approximate
06:08AM -16.5011 126.4073 252° West  Level FlightAware Approximate
06:08AM -16.5179 126.3528 360° North 10,000  Level Aus ATC (Calculated)
06:09AM -16.5179 126.3528 252° West 10,000  Level Aus ATC (Calculated)
06:11AM -16.5470 126.2585 252° West  Level FlightAware Approximate
06:12AM -16.5619 126.2101 252° West  Level FlightAware Approximate
06:12AM -16.5769 126.1610 360° North 10,000  Level Aus ATC (Calculated)
06:13AM -16.5769 126.1610 252° West 10,000  Level Aus ATC (Calculated)
06:15AM -16.6059 126.0666 252° West  Level FlightAware Approximate
06:16AM -16.6208 126.0182 252° West  Level FlightAware Approximate
06:17AM -16.6356 125.9697 252° West  Level FlightAware Approximate
06:18AM -16.6505 125.9213 252° West  Level FlightAware Approximate
06:18AM -16.6554 125.9051 360° North 10,000  Level Aus ATC (Calculated)
06:19AM -16.6554 125.9051 252° West 10,000  Level Aus ATC (Calculated)
06:21AM -16.6838 125.8122 252° West  Level FlightAware Approximate
06:21AM -16.6945 125.7771 252° West 10,000  Level Aus ATC (Calculated)
06:23AM -16.7191 125.6963 252° West  Level FlightAware Approximate
06:24AM -16.7339 125.6478 252° West  Level FlightAware Approximate
06:25AM -16.7486 125.5993 252° West  Level FlightAware Approximate
06:26AM -16.7634 125.5508 252° West  Level FlightAware Approximate
06:27AM -16.7781 125.5023 252° West  Level FlightAware Approximate
06:28AM -16.7928 125.4537 252° West  Level FlightAware Approximate
06:29AM -16.8076 125.4052 252° West  Level FlightAware Approximate
06:30AM -16.8223 125.3567 252° West  Level FlightAware Approximate
06:30AM -16.8114 125.3926 360° North 10,000  Level Aus ATC (Calculated)
06:30AM -16.8114 125.3926 252° West 10,000  Level Aus ATC (Calculated)
06:31AM -16.8308 125.3285 252° West 10,000  Level Aus ATC (Calculated)
06:33AM -16.8577 125.2395 252° West  Level FlightAware Approximate
06:34AM -16.8723 125.1910 252° West  Level FlightAware Approximate
06:35AM -16.8870 125.1424 253° West  Level FlightAware Approximate
06:36AM -16.9016 125.0938 253° West  Level FlightAware Approximate
06:37AM -16.9162 125.0452 253° West  Level FlightAware Approximate
06:38AM -16.9308 124.9967 253° West  Level FlightAware Approximate
06:39AM -16.9454 124.9481 253° West  Level FlightAware Approximate
06:39AM -16.9660 124.8794 73° East 10,000  Level Aus ATC (Calculated)
06:40AM -16.9600 124.8995 253° West  Level FlightAware Approximate
06:41AM -16.9809 124.8299 253° West  Level FlightAware Approximate
06:42AM -16.9954 124.7813 253° West  Level FlightAware Approximate
06:43AM -17.0100 124.7327 253° West  Level FlightAware Approximate
06:43AM -17.0045 124.7509 253° West 10,000  Level Aus ATC (Calculated)
06:45AM -17.0249 124.6826 253° West  Level FlightAware Approximate
06:46AM -17.0397 124.6332 253° West  Level FlightAware Approximate
06:46AM -17.0429 124.6224 114° Southeast 10,000  Level Aus ATC (Calculated)
06:48AM -17.0755 124.7007 114° Southeast  Level FlightAware Approximate
06:49AM -17.0557 124.6532 294° West  Level FlightAware Approximate
06:50AM -17.0360 124.6058 294° West  Level FlightAware Approximate
06:50AM -17.1255 124.3824 70° East 10,000  Level Aus ATC (Calculated)
06:52AM -17.0984 124.4611 70° East  Level FlightAware Approximate
06:53AM -17.0817 124.5098 70° East  Level FlightAware Approximate
06:54AM -17.0649 124.5585 70° East  Level FlightAware Approximate
06:55AM -17.0569 124.5819 250° West  Level FlightAware Approximate
06:56AM -17.0736 124.5332 250° West  Level FlightAware Approximate
06:57AM -17.0904 124.4846 250° West  Level FlightAware Approximate
06:58AM -17.1071 124.4359 250° West  Level FlightAware Approximate
06:59AM -17.1238 124.3872 250° West  Level FlightAware Approximate
07:00AM -17.1405 124.3384 250° West  Level FlightAware Approximate
07:01AM -17.1572 124.2897 250° West  Level FlightAware Approximate
07:01AM -17.3102 123.8416 250° West 10,000  Level Aus ATC (Calculated)
07:02AM -17.3267 123.7928 250° West  Level FlightAware Approximate
07:02AM -17.3306 123.7814 360° North 10,000  Level Aus ATC (Calculated)
07:02AM -17.3306 123.7814 250° West 10,000  Level Aus ATC (Calculated)
07:04AM -17.3499 123.7245 250° West  Level FlightAware Approximate
07:05AM -17.3665 123.6757 250° West  Level FlightAware Approximate
07:06AM -17.3830 123.6268 250° West  Level FlightAware Approximate
07:07AM -17.3665 123.6757 70° East  Level FlightAware Approximate
07:07AM -17.4076 123.5723 247° West 300  Level Aus ATC (Calculated)
07:08AM -17.4438 123.4834 67° East 300  Level Aus ATC (Calculated)
07:10AM -17.4121 123.5612 67° East  Level FlightAware Approximate
07:11AM -17.3927 123.6089 67° East  Level FlightAware Approximate
07:12AM -17.3732 123.6566 67° East  Level FlightAware Approximate
07:13AM -17.3538 123.7042 67° East  Level FlightAware Approximate
07:14AM -17.3732 123.6566 247° West  Level FlightAware Approximate
07:15AM -17.3538 123.7042 67° East  Level FlightAware Approximate
07:16AM -17.3732 123.6566 247° West  Level FlightAware Approximate
07:17AM -17.3892 123.6175 247° West  Level FlightAware Approximate
07:18AM -17.4086 123.5699 247° West  Level FlightAware Approximate
07:19AM -17.4280 123.5222 247° West  Level FlightAware Approximate
07:19AM -17.6601 122.9493 67° East 300  Level Aus ATC (Calculated)
07:20AM -17.4474 123.4745 247° West  Level FlightAware Approximate
07:21AM -17.6820 122.8951 247° West  Level FlightAware Approximate
07:21AM -17.6961 122.8602 247° West 300  Level Aus ATC (Calculated)
07:22AM -17.7012 122.8473 247° West  Level FlightAware Approximate
07:23AM -17.7204 122.7996 247° West  Level FlightAware Approximate
07:24AM -17.7397 122.7518 247° West  Level FlightAware Approximate
07:25AM -17.7589 122.7039 247° West  Level FlightAware Approximate
07:26AM -17.7781 122.6561 247° West  Level FlightAware Approximate
07:27AM -17.7973 122.6082 247° West  Level FlightAware Approximate
07:28AM -17.8165 122.5603 247° West  Level FlightAware Approximate
07:28AM -17.8035 122.5926 247° West 300  Level Aus ATC (Calculated)
07:29AM -17.8393 122.5033 360° North 300  Level Aus ATC (Calculated)
07:30AM -17.8393 122.5033 247° West 300  Level Aus ATC (Calculated)
07:31AM -17.8585 122.4554 247° West  Level FlightAware Approximate
07:32AM -17.8776 122.4075 247° West  Level FlightAware Approximate
07:33AM -17.8967 122.3596 247° West  Level FlightAware Approximate
07:34AM -17.9159 122.3117 247° West  Level FlightAware Approximate
07:35AM -17.9350 122.2637 247° West  Level FlightAware Approximate
07:36AM -17.9447 122.2317 247° West  Level Estimated
07:37AM -17.9447 122.2317 115° Southeast  Level Estimated
07:38AM -17.9447 122.2317 115° Southeast  Level Estimated
07:39AM -17.9447 122.2317 115° Southeast  Level Estimated
07:40AM -17.9447 122.2317 115° Southeast  Level Estimated
07:41AM -17.9447 122.2317 115° Southeast  Level Estimated
07:42AM -17.9447 122.2317 115° Southeast  Level Estimated
07:43AM -17.9447 122.2317 115° Southeast  Level Estimated
07:44AM -17.9447 122.2317 115° Southeast  Level Estimated
07:45AM -17.9447 122.2317 115° Southeast  Level Estimated
07:46AM -17.9447 122.2317 115° Southeast  Level Estimated
07:47AM -17.9447 122.2317 115° Southeast  Level Estimated